Time;durP1;ratioP1;P1;durP2;ratioP2;P2;SDS_P1;SDS_P2;PMS_P1;PMS_P2;Temp;Humidity;BMP_temperature;BMP_pressure;BME280_temperature;BME280_humidity;BME280_pressure;Samples;Min_cycle;Max_cycle;Signal;HPM_P1;HPM_P2
2023/08/21 00:01:48;;;;;;;;;;;29.70;80.10;;;29.91;47.18;99128.47;4924296;28;124558;-79
2023/08/21 00:04:17;;;;;;;;;;;29.60;80.20;;;29.90;47.04;99128.88;4926844;28;125269;-78
2023/08/21 00:06:53;;;;;;;;;;;29.60;80.30;;;29.85;47.41;99121.66;4925045;28;120524;-79
2023/08/21 00:09:25;;;;;;;;;;;29.60;80.60;;;29.83;47.46;99124.13;4924435;28;119653;-78
2023/08/21 00:12:24;;;;;;;;;;;29.60;80.70;;;29.80;47.03;99129.91;4926864;28;124387;-78
2023/08/21 00:15:26;;;;;;;;;;;29.60;80.80;;;29.73;46.84;99125.94;4927592;28;124570;-78
2023/08/21 00:17:58;;;;;;;;;;;29.50;80.90;;;29.74;47.57;99132.44;4887774;28;119518;-78
2023/08/21 00:20:28;;;;;;;;;;;29.50;81.10;;;29.72;47.78;99123.53;4886670;28;118654;-78
2023/08/21 00:22:54;;;;;;;;;;;29.50;81.20;;;29.70;47.34;99126.00;4885615;28;124119;-78
2023/08/21 00:26:04;;;;;;;;;;;29.40;81.30;;;29.63;47.61;99124.03;4886504;28;123890;-79
2023/08/21 00:28:42;;;;;;;;;;;29.40;81.50;;;29.62;47.71;99122.44;4877579;28;119376;-79
2023/08/21 00:31:08;;;;;;;;;;;29.40;81.80;;;29.63;47.57;99120.41;4899408;28;118965;-78
2023/08/21 00:33:37;;;;;;;;;;;29.40;81.90;;;29.61;47.59;99117.19;4900474;28;125643;-78
2023/08/21 00:36:09;;;;;;;;;;;29.30;82.10;;;29.60;47.90;99118.44;4904537;28;123766;-79
2023/08/21 00:39:06;;;;;;;;;;;29.30;82.20;;;29.56;48.12;99118.50;4919852;28;120198;-79
2023/08/21 00:42:08;;;;;;;;;;;29.30;82.40;;;29.51;48.24;99113.28;4899745;28;118667;-78
2023/08/21 00:44:37;;;;;;;;;;;29.30;82.50;;;29.50;48.14;99118.19;4929635;28;125432;-79
2023/08/21 00:47:54;;;;;;;;;;;29.20;82.70;;;29.45;48.17;99118.69;4929954;28;123849;-79
2023/08/21 00:50:24;;;;;;;;;;;29.20;82.70;;;29.43;48.33;99112.59;4891115;28;120666;-79
2023/08/21 00:52:59;;;;;;;;;;;29.20;83.00;;;29.41;48.25;99103.69;4935574;28;118704;-79
2023/08/21 00:58:12;;;;;;;;;;;29.10;83.20;;;29.37;48.62;99111.50;4970187;28;123618;-79
2023/08/21 01:01:04;;;;;;;;;;;29.10;83.40;;;29.33;48.25;99107.91;4948983;28;120020;-79
2023/08/21 01:03:36;;;;;;;;;;;29.10;83.50;;;29.33;48.21;99102.22;4961760;28;120308;-78
2023/08/21 01:06:30;;;;;;;;;;;29.10;83.60;;;29.30;48.53;99103.06;4949292;28;124022;-78
2023/08/21 01:09:49;;;;;;;;;;;29.00;83.70;;;29.25;48.78;99112.09;4962047;28;123894;-78
2023/08/21 01:12:58;;;;;;;;;;;29.00;83.90;;;29.19;48.76;99099.59;4977374;28;121200;-79
2023/08/21 01:15:35;;;;;;;;;;;28.90;84.00;;;29.16;48.73;99104.13;4954156;28;118791;-79
2023/08/21 01:18:45;;;;;;;;;;;28.90;84.20;;;29.12;48.93;99097.66;4949765;28;122531;-78
2023/08/21 01:21:42;;;;;;;;;;;28.90;84.30;;;29.08;48.85;99102.63;4950958;28;124397;-79
2023/08/21 01:24:20;;;;;;;;;;;28.90;84.50;;;29.05;48.92;99109.97;4922186;28;118173;-79
2023/08/21 01:27:00;;;;;;;;;;;28.80;84.60;;;29.03;48.99;99112.41;4931392;28;117752;-79
2023/08/21 01:29:45;;;;;;;;;;;28.80;84.90;;;29.03;49.08;99105.91;4985824;28;124214;-78
2023/08/21 01:35:58;;;;;;;;;;;28.70;85.20;;;28.93;49.38;99110.53;4985722;28;120193;-78
2023/08/21 01:42:06;;;;;;;;;;;28.60;85.40;;;28.87;49.37;99114.31;4964693;28;124506;-78
2023/08/21 01:44:33;;;;;;;;;;;28.60;85.60;;;28.87;49.74;99109.41;4965794;28;123006;-78
2023/08/21 01:47:46;;;;;;;;;;;28.60;85.90;;;28.84;49.88;99113.13;4959385;28;119018;-78
2023/08/21 01:50:59;;;;;;;;;;;28.60;86.00;;;28.78;49.83;99109.16;4984538;28;118389;-78
2023/08/21 01:53:25;;;;;;;;;;;28.50;86.20;;;28.76;49.99;99101.03;4864784;28;124288;-78
2023/08/21 01:55:57;;;;;;;;;;;28.50;86.50;;;28.76;50.26;99101.03;4853970;28;123699;-79
2023/08/21 01:58:33;;;;;;;;;;;28.50;86.60;;;28.74;50.39;99106.34;4857611;28;120089;-79
2023/08/21 02:00:59;;;;;;;;;;;28.50;86.90;;;28.74;50.04;99111.22;4864634;28;119593;-79
2023/08/21 02:03:33;;;;;;;;;;;28.50;86.90;;;28.70;50.21;99099.91;4853128;28;124390;-78
2023/08/21 02:06:12;;;;;;;;;;;28.50;87.00;;;28.68;50.18;99102.38;4856694;28;123955;-79
2023/08/21 02:08:44;;;;;;;;;;;28.50;87.20;;;28.67;50.36;99099.94;4877522;28;119372;-79
2023/08/21 02:11:10;;;;;;;;;;;28.40;87.30;;;28.67;50.01;99102.78;4869945;28;118667;-79
2023/08/21 02:13:45;;;;;;;;;;;28.40;87.40;;;28.65;50.38;99105.28;4873821;28;124619;-79
2023/08/21 02:16:14;;;;;;;;;;;28.40;88.20;;;28.61;50.39;99106.13;4865901;28;123797;-78
2023/08/21 02:19:02;;;;;;;;;;;28.40;87.70;;;28.56;50.69;99098.09;4866611;28;122592;-78
2023/08/21 02:24:58;;;;;;;;;;;28.30;87.90;;;28.49;50.66;99098.19;4867838;28;124950;-79
2023/08/21 02:28:07;;;;;;;;;;;28.30;88.10;;;28.45;50.57;99102.28;4856784;28;124456;-79
2023/08/21 02:30:48;;;;;;;;;;;28.20;88.10;;;28.42;50.62;99106.75;4920009;28;118688;-79
2023/08/21 02:40:20;;;;;;;;;;;28.10;88.50;;;28.30;50.82;99102.44;4965610;28;123868;-79
2023/08/21 02:42:50;;;;;;;;;;;28.10;88.80;;;28.31;50.97;99120.31;4935255;28;118452;-79
2023/08/21 02:45:22;;;;;;;;;;;28.00;89.00;;;28.29;51.17;99117.91;4947402;28;118286;-78
2023/08/21 02:47:57;;;;;;;;;;;28.00;89.30;;;28.27;51.41;99122.41;4928624;28;124984;-78
2023/08/21 02:54:32;;;;;;;;;;;28.00;89.70;;;28.14;51.61;99114.41;4946247;28;120743;-78
2023/08/21 02:57:01;;;;;;;;;;;27.90;89.90;;;28.12;51.73;99122.56;4945161;28;118796;-78
2023/08/21 03:00:13;;;;;;;;;;;27.90;90.00;;;28.11;51.93;99120.94;4928406;28;124007;-78
2023/08/21 03:03:14;;;;;;;;;;;27.90;90.10;;;28.06;51.77;99112.88;4946878;28;123692;-79
2023/08/21 03:06:34;;;;;;;;;;;27.80;90.10;;;28.02;51.92;99111.31;4940830;28;119724;-78
2023/08/21 03:09:11;;;;;;;;;;;27.80;90.20;;;28.01;52.04;99110.50;4939750;28;118690;-78
2023/08/21 03:11:57;;;;;;;;;;;27.80;90.40;;;28.00;52.24;99114.59;4940699;28;123417;-79
2023/08/21 03:17:44;;;;;;;;;;;27.70;90.50;;;27.94;52.41;99116.25;4986712;28;119456;-79
2023/08/21 03:20:13;;;;;;;;;;;27.70;90.60;;;27.92;52.36;99113.06;4981862;28;119285;-79
2023/08/21 03:22:39;;;;;;;;;;;27.70;90.90;;;27.89;52.38;99122.44;4970373;28;125124;-79
2023/08/21 03:25:09;;;;;;;;;;;27.60;90.70;;;27.90;52.27;99121.19;4989100;28;124137;-79
2023/08/21 03:27:39;;;;;;;;;;;27.60;90.70;;;27.88;52.29;99120.81;4975315;28;119415;-78
2023/08/21 03:30:21;;;;;;;;;;;27.60;90.70;;;27.86;52.47;99120.41;4978523;28;118202;-78
2023/08/21 03:32:47;;;;;;;;;;;27.60;90.80;;;27.84;52.41;99125.72;4984555;28;124319;-78
2023/08/21 03:39:01;;;;;;;;;;;27.50;90.80;;;27.76;52.30;99117.25;4926936;28;120508;-79
2023/08/21 03:41:27;;;;;;;;;;;27.50;90.90;;;27.76;52.37;99116.44;4925678;28;117174;-78
2023/08/21 03:43:59;;;;;;;;;;;27.50;90.90;;;27.74;52.79;99119.69;4896840;28;123444;-79
2023/08/21 03:46:40;;;;;;;;;;;27.50;91.00;;;27.72;52.85;99122.13;4901200;28;123091;-79
2023/08/21 03:49:12;;;;;;;;;;;27.50;91.20;;;27.72;52.88;99124.16;4907427;28;120430;-79
2023/08/21 03:51:38;;;;;;;;;;;27.40;91.30;;;27.70;53.24;99124.59;4877480;28;118987;-79
2023/08/21 03:54:05;;;;;;;;;;;27.40;91.50;;;27.68;53.42;99134.78;4907295;28;124076;-79
2023/08/21 03:56:40;;;;;;;;;;;27.40;91.70;;;27.65;53.95;99125.06;4896502;28;123086;-79
2023/08/21 03:59:45;;;;;;;;;;;27.40;91.80;;;27.59;53.91;99132.41;4891258;28;119420;-79
2023/08/21 04:02:17;;;;;;;;;;;27.40;92.00;;;27.57;54.29;99137.72;4888223;28;119391;-78
2023/08/21 04:05:14;;;;;;;;;;;27.40;92.20;;;27.54;54.67;99138.56;4889959;28;124611;-79
2023/08/21 04:07:49;;;;;;;;;;;27.30;92.40;;;27.47;55.69;99136.56;4801283;29;123268;-79
2023/08/21 04:10:16;;;;;;;;;;;27.30;93.10;;;27.39;55.58;99140.69;4829697;29;119668;-78
2023/08/21 04:13:27;;;;;;;;;;;27.20;93.10;;;27.30;55.55;99154.56;4816722;29;118947;-79
2023/08/21 04:16:15;;;;;;;;;;;27.10;93.20;;;27.27;55.81;99159.03;4842831;28;124819;-78
2023/08/21 04:19:13;;;;;;;;;;;27.10;93.30;;;27.27;55.84;99156.22;4854124;28;124258;-78
2023/08/21 04:21:42;;;;;;;;;;;27.10;93.40;;;27.28;56.17;99160.66;4869814;28;118706;-78
2023/08/21 04:24:08;;;;;;;;;;;27.00;93.50;;;27.27;55.90;99153.38;4866392;28;119200;-78
2023/08/21 04:26:45;;;;;;;;;;;27.00;93.60;;;27.29;56.35;99167.91;4870120;28;124552;-78
2023/08/21 04:29:14;;;;;;;;;;;27.00;93.80;;;27.28;56.28;99169.16;4854586;28;123912;-78
2023/08/21 04:32:21;;;;;;;;;;;27.00;93.90;;;27.26;56.55;99173.63;4869614;28;119634;-78
2023/08/21 04:39:28;;;;;;;;;;;26.90;94.20;;;27.14;56.69;99166.41;4871458;28;124523;-78
2023/08/21 04:45:20;;;;;;;;;;;26.90;94.40;;;27.13;56.56;99167.59;4872774;28;120725;-79
2023/08/21 04:48:29;;;;;;;;;;;26.80;94.40;;;27.11;56.33;99172.91;4871167;28;120575;-79
2023/08/21 04:51:14;;;;;;;;;;;26.90;94.50;;;27.14;56.71;99174.91;4858772;28;124003;-78
2023/08/21 04:53:50;;;;;;;;;;;26.90;94.60;;;27.14;56.53;99166.41;4907127;28;123946;-79
2023/08/21 04:56:42;;;;;;;;;;;26.90;94.60;;;27.13;56.48;99163.97;4912115;28;119287;-79
2023/08/21 05:02:02;;;;;;;;;;;26.90;94.80;;;27.17;56.59;99165.59;4891900;28;124116;-78
2023/08/21 05:05:16;;;;;;;;;;;26.90;94.80;;;27.18;56.86;99172.06;4907447;28;124013;-78
2023/08/21 05:07:42;;;;;;;;;;;26.90;94.90;;;27.19;57.02;99168.84;4885353;28;118697;-78
2023/08/21 05:10:18;;;;;;;;;;;26.90;95.00;;;27.22;56.95;99182.19;4892256;28;118947;-79
2023/08/21 05:13:05;;;;;;;;;;;26.90;95.00;;;27.24;56.99;99174.06;4878373;28;125392;-79
2023/08/21 05:15:55;;;;;;;;;;;26.90;95.10;;;27.27;57.16;99181.75;4883130;28;124257;-79
2023/08/21 05:18:23;;;;;;;;;;;26.90;95.10;;;27.31;57.07;99176.84;4880114;28;120009;-79
2023/08/21 05:21:01;;;;;;;;;;;26.90;95.10;;;27.34;56.39;99186.53;4872675;28;118537;-78
2023/08/21 05:24:06;;;;;;;;;;;27.00;95.10;;;27.38;56.59;99181.66;4900781;28;124207;-78
2023/08/21 05:27:00;;;;;;;;;;;27.00;95.10;;;27.40;56.49;99179.19;4896896;28;125057;-78
2023/08/21 05:35:53;;;;;;;;;;;27.00;95.10;;;27.50;56.21;99183.19;4915553;28;124931;-79
2023/08/21 05:38:35;;;;;;;;;;;27.10;95.10;;;27.54;56.22;99196.13;4927718;28;123648;-79
2023/08/21 05:41:20;;;;;;;;;;;27.10;95.10;;;27.58;56.31;99178.25;5003119;28;120359;-79
2023/08/21 05:44:42;;;;;;;;;;;27.20;95.10;;;27.61;56.07;99195.25;4972581;28;119780;-78
2023/08/21 05:47:17;;;;;;;;;;;27.20;95.00;;;27.66;56.06;99191.97;4992332;28;123666;-79
2023/08/21 05:50:30;;;;;;;;;;;27.20;95.00;;;27.68;55.42;99189.53;4991928;28;124054;-79
2023/08/21 05:52:57;;;;;;;;;;;27.30;94.80;;;27.67;54.76;99202.13;4938765;28;119802;-79
2023/08/21 05:55:24;;;;;;;;;;;27.30;94.50;;;27.67;54.72;99187.09;4938259;28;117747;-79
2023/08/21 05:58:16;;;;;;;;;;;27.30;94.30;;;27.65;54.40;99190.38;4929777;28;124085;-78
2023/08/21 06:01:16;;;;;;;;;;;27.30;94.10;;;27.67;53.84;99202.13;4917157;28;123350;-79
2023/08/21 06:04:00;;;;;;;;;;;27.40;94.00;;;27.66;54.13;99194.81;4908646;28;118723;-79
2023/08/21 06:09:39;;;;;;;;;;;27.40;93.80;;;27.75;53.96;99200.81;4909133;28;124162;-79
2023/08/21 06:12:23;;;;;;;;;;;27.40;93.70;;;27.80;53.69;99196.72;4970172;28;124010;-79
2023/08/21 06:15:08;;;;;;;;;;;27.40;93.60;;;27.84;53.59;99191.84;4989656;28;119674;-78
2023/08/21 06:18:08;;;;;;;;;;;27.50;93.50;;;27.90;53.41;99200.72;4991576;28;118814;-78
2023/08/21 06:21:02;;;;;;;;;;;27.50;93.50;;;27.96;53.17;99196.97;4994187;28;124264;-79
2023/08/21 06:23:32;;;;;;;;;;;27.50;93.40;;;28.04;53.09;99206.25;4985992;28;123330;-78
2023/08/21 06:26:05;;;;;;;;;;;27.50;93.30;;;28.10;53.03;99201.75;4972971;28;119323;-79
2023/08/21 06:28:52;;;;;;;;;;;27.60;93.30;;;28.17;52.61;99198.00;4960138;28;118308;-78
2023/08/21 06:31:46;;;;;;;;;;;27.70;93.20;;;28.24;52.22;99206.47;4978156;28;124954;-78
2023/08/21 06:34:13;;;;;;;;;;;27.70;93.10;;;28.31;52.32;99205.56;4964972;28;124448;-79
2023/08/21 06:36:48;;;;;;;;;;;27.80;93.00;;;28.37;51.78;99201.03;4953333;28;120500;-79
2023/08/21 06:39:14;;;;;;;;;;;27.90;92.90;;;28.42;51.78;99204.22;4971834;28;120141;-79
2023/08/21 06:42:12;;;;;;;;;;;27.90;92.80;;;28.46;51.71;99207.06;4970867;28;124559;-78
2023/08/21 06:45:47;;;;;;;;;;;27.90;92.70;;;28.51;51.75;99206.59;4974050;28;123953;-78
2023/08/21 06:48:38;;;;;;;;;;;28.00;92.70;;;28.60;51.25;99198.34;4985090;28;119134;-79
2023/08/21 06:51:10;;;;;;;;;;;28.10;92.60;;;28.68;51.24;99199.06;4973943;28;118976;-78
2023/08/21 06:53:59;;;;;;;;;;;28.10;92.50;;;28.76;50.99;99199.78;4979185;28;124861;-79
2023/08/21 06:56:47;;;;;;;;;;;28.20;92.40;;;28.82;50.64;99204.56;4909688;28;123354;-79
2023/08/21 06:59:22;;;;;;;;;;;28.30;92.20;;;28.87;50.45;99211.81;4930230;28;119824;-79
2023/08/21 07:02:35;;;;;;;;;;;28.30;92.00;;;28.92;50.59;99208.50;4943872;28;119072;-78
2023/08/21 07:05:13;;;;;;;;;;;28.40;92.00;;;29.02;50.37;99207.56;4915646;28;125388;-78
2023/08/21 07:07:57;;;;;;;;;;;28.50;91.90;;;29.09;50.20;99205.88;4922350;28;122536;-79
2023/08/21 07:10:37;;;;;;;;;;;28.50;91.70;;;29.15;49.89;99206.97;4942389;28;119587;-79
2023/08/21 07:13:15;;;;;;;;;;;28.60;91.70;;;29.23;49.52;99206.47;4930349;28;118526;-78
2023/08/21 07:15:49;;;;;;;;;;;28.70;91.50;;;29.29;49.43;99203.94;4943157;28;124578;-78
2023/08/21 07:19:02;;;;;;;;;;;28.70;91.50;;;29.35;49.42;99207.91;4911216;28;122877;-79
2023/08/21 07:21:47;;;;;;;;;;;28.80;91.50;;;29.43;49.58;99208.59;4853243;28;119013;-78
2023/08/21 07:24:28;;;;;;;;;;;28.90;91.40;;;29.50;49.68;99212.16;4830728;29;119216;-79
2023/08/21 07:27:33;;;;;;;;;;;28.90;91.40;;;29.59;49.39;99202.25;4822934;29;124719;-79
2023/08/21 07:30:00;;;;;;;;;;;29.00;91.40;;;29.68;49.07;99211.06;4828176;29;124008;-79
2023/08/21 07:32:35;;;;;;;;;;;29.10;91.40;;;29.73;49.15;99208.53;4821826;29;120784;-79
2023/08/21 07:35:01;;;;;;;;;;;29.20;91.30;;;29.75;49.02;99215.84;4880782;28;120348;-79
2023/08/21 07:37:45;;;;;;;;;;;29.20;91.20;;;29.76;49.21;99218.25;4872548;28;122435;-79
2023/08/21 07:40:14;;;;;;;;;;;29.20;91.20;;;29.78;48.99;99218.63;4874974;28;124231;-79
2023/08/21 07:42:46;;;;;;;;;;;29.20;91.30;;;29.79;49.37;99217.38;4890228;28;119179;-80
2023/08/21 07:45:24;;;;;;;;;;;29.20;91.20;;;29.81;49.25;99216.97;4875698;28;119284;-80
2023/08/21 07:47:50;;;;;;;;;;;29.30;91.30;;;29.87;49.20;99216.03;4885987;28;124025;-79
2023/08/21 07:50:28;;;;;;;;;;;29.30;91.30;;;29.95;49.38;99211.81;4897760;28;123051;-79
2023/08/21 07:53:03;;;;;;;;;;;29.40;91.30;;;30.03;49.56;99217.38;4907157;28;119283;-80
2023/08/21 07:55:39;;;;;;;;;;;29.50;91.30;;;30.11;48.98;99221.72;4889391;28;118990;-79
2023/08/21 07:59:02;;;;;;;;;;;29.60;91.30;;;30.19;49.49;99226.03;4934554;28;124430;-80
2023/08/21 08:01:28;;;;;;;;;;;29.70;91.30;;;30.25;48.87;99215.81;4948690;28;124765;-80
2023/08/21 08:04:23;;;;;;;;;;;29.70;91.20;;;30.31;48.67;99211.19;4940030;28;119556;-79
2023/08/21 08:07:15;;;;;;;;;;;29.70;91.20;;;30.37;48.58;99215.13;4949764;28;119745;-80
2023/08/21 08:09:47;;;;;;;;;;;29.80;91.00;;;30.40;48.34;99216.31;4955001;28;124967;-79
2023/08/21 08:12:35;;;;;;;;;;;29.90;90.90;;;30.45;48.68;99212.97;4933416;28;123973;-79
2023/08/21 08:21:21;;;;;;;;;;;30.00;90.60;;;30.54;47.87;99220.94;4945050;28;124373;-80
2023/08/21 08:23:56;;;;;;;;;;;30.00;90.60;;;30.57;48.20;99220.88;4949676;28;123875;-79
2023/08/21 08:26:22;;;;;;;;;;;30.00;90.50;;;30.62;47.61;99219.53;4939471;28;120327;-79
2023/08/21 08:29:11;;;;;;;;;;;30.10;90.40;;;30.68;47.40;99216.97;4929291;28;119562;-79
2023/08/21 08:31:45;;;;;;;;;;;30.20;90.30;;;30.76;47.25;99219.25;4942228;28;124101;-79
2023/08/21 08:40:11;;;;;;;;;;;30.30;90.20;;;30.89;47.72;99219.41;4932400;28;119135;-79
2023/08/21 08:43:32;;;;;;;;;;;30.30;90.20;;;30.91;47.21;99210.41;4901180;28;123877;-77
2023/08/21 08:46:11;;;;;;;;;;;30.40;90.20;;;30.91;47.66;99216.13;4903050;28;126373;-79
2023/08/21 08:48:49;;;;;;;;;;;30.40;90.10;;;30.89;47.58;99212.91;4886690;28;119520;-79
2023/08/21 08:52:05;;;;;;;;;;;30.40;90.10;;;30.89;46.99;99212.91;4892299;28;118834;-79
2023/08/21 08:54:32;;;;;;;;;;;30.40;90.00;;;30.88;47.13;99211.31;4871612;28;123930;-79
2023/08/21 08:57:30;;;;;;;;;;;30.40;90.00;;;30.89;47.33;99210.03;4852630;28;123094;-79
2023/08/21 08:59:59;;;;;;;;;;;30.40;89.90;;;30.95;47.04;99222.53;4931584;28;119970;-78
2023/08/21 09:02:26;;;;;;;;;;;30.40;89.70;;;31.01;46.42;99215.88;4931657;28;118669;-78
2023/08/21 09:05:37;;;;;;;;;;;30.50;89.30;;;31.03;46.47;99206.88;4926661;28;124304;-79
2023/08/21 09:08:13;;;;;;;;;;;30.50;88.90;;;31.08;46.00;99216.97;4928981;28;125812;-79
2023/08/21 09:10:41;;;;;;;;;;;30.50;88.20;;;31.11;46.09;99211.19;4913950;28;119627;-79
2023/08/21 09:13:17;;;;;;;;;;;30.60;87.80;;;31.14;45.58;99218.88;4929638;28;118669;-79
2023/08/21 09:22:24;;;;;;;;;;;30.80;87.20;;;31.30;46.00;99205.84;4877423;28;119998;-79
2023/08/21 09:28:13;;;;;;;;;;;30.90;87.30;;;31.44;44.43;99203.50;4887695;28;124877;-79
2023/08/21 09:30:58;;;;;;;;;;;30.90;86.00;;;31.48;44.59;99209.13;4878586;28;124438;-80
2023/08/21 09:33:33;;;;;;;;;;;31.00;85.60;;;31.53;43.74;99199.22;4947054;28;119764;-79
2023/08/21 09:36:12;;;;;;;;;;;31.00;84.90;;;31.51;43.86;99199.66;4936963;28;120582;-79
2023/08/21 09:39:03;;;;;;;;;;;31.00;84.20;;;31.47;43.15;99207.53;4911611;28;124341;-79
2023/08/21 09:41:35;;;;;;;;;;;31.00;83.60;;;31.49;42.59;99199.31;4926520;28;123728;-78
2023/08/21 09:44:03;;;;;;;;;;;31.00;82.50;;;31.53;42.67;99196.38;4923649;28;120072;-79
2023/08/21 09:46:37;;;;;;;;;;;31.10;83.00;;;31.56;43.52;99195.47;4929880;28;118278;-79
2023/08/21 09:49:06;;;;;;;;;;;31.10;83.40;;;31.55;43.63;99208.97;4928237;28;123952;-79
2023/08/21 09:51:33;;;;;;;;;;;31.10;83.40;;;31.60;43.48;99194.13;4949639;28;124155;-79
2023/08/21 09:54:37;;;;;;;;;;;31.20;83.70;;;31.62;43.63;99194.50;4964480;28;119672;-80
2023/08/21 09:57:09;;;;;;;;;;;31.20;83.30;;;31.76;42.46;99186.78;4963297;28;118220;-80
2023/08/21 10:00:20;;;;;;;;;;;31.20;82.50;;;31.82;41.89;99197.25;4981781;28;124990;-79
2023/08/21 10:05:59;;;;;;;;;;;31.30;79.80;;;31.90;41.27;99186.44;4981071;28;120623;-79
2023/08/21 10:08:45;;;;;;;;;;;31.40;80.00;;;31.92;40.69;99189.69;4972259;28;118952;-79
2023/08/21 10:12:23;;;;;;;;;;;;;;;;;;;;;
2023/08/21 10:15:01;;;;;;;;;;;31.40;79.90;;;31.98;41.19;99184.22;4970628;28;124385;-79
2023/08/21 10:18:17;;;;;;;;;;;31.40;79.30;;;31.99;40.66;99186.63;4968112;28;120018;-79
2023/08/21 10:24:01;;;;;;;;;;;31.50;78.40;;;32.03;40.51;99173.06;4997897;28;125135;-80
2023/08/21 10:26:39;;;;;;;;;;;31.50;78.30;;;32.07;40.55;99168.03;4987334;28;123971;-79
2023/08/21 10:29:20;;;;;;;;;;;31.60;78.50;;;32.12;40.48;99163.81;4989538;28;119515;-79
2023/08/21 10:32:19;;;;;;;;;;;31.30;78.20;;;32.18;40.44;99156.28;4994426;28;117203;-78
2023/08/21 10:34:53;;;;;;;;;;;31.70;78.00;;;32.28;39.96;99160.13;4999456;28;124632;-79
2023/08/21 10:38:01;;;;;;;;;;;31.80;77.80;;;32.37;39.78;99156.59;4981700;28;123829;-79
2023/08/21 10:40:28;;;;;;;;;;;31.80;77.30;;;32.41;39.48;99155.25;4973392;28;119600;-79
2023/08/21 10:43:44;;;;;;;;;;;31.90;77.00;;;32.49;39.70;99153.81;4979486;28;118784;-79
2023/08/21 10:46:15;;;;;;;;;;;31.90;77.00;;;32.55;39.30;99154.06;4995827;28;123595;-79
2023/08/21 10:49:16;;;;;;;;;;;32.00;76.40;;;32.59;39.60;99151.91;4969323;28;124034;-79
2023/08/21 10:51:43;;;;;;;;;;;32.10;76.50;;;32.68;39.58;99154.09;4960656;28;119420;-79
2023/08/21 10:54:14;;;;;;;;;;;32.20;76.70;;;32.77;38.96;99151.34;4943995;28;118838;-79
2023/08/21 11:00:58;;;;;;;;;;;32.20;75.00;;;32.87;38.63;99152.28;4970276;28;125070;-79
2023/08/21 11:03:40;;;;;;;;;;;32.30;75.00;;;32.94;38.48;99146.31;4954647;28;119190;-79
2023/08/21 11:07:10;;;;;;;;;;;32.40;74.90;;;33.02;38.19;99152.66;4943034;28;118706;-79
2023/08/21 11:09:38;;;;;;;;;;;32.40;74.50;;;33.15;38.02;99142.81;4868929;28;123803;-80
2023/08/21 11:13:18;;;;;;;;;;;32.50;74.30;;;33.24;37.93;99136.41;4876219;28;124335;-79
2023/08/21 11:16:17;;;;;;;;;;;32.70;74.00;;;33.42;37.52;99141.53;4793476;29;120569;-79
2023/08/21 11:18:44;;;;;;;;;;;32.80;73.10;;;33.54;36.86;99137.88;4755841;29;119408;-79
2023/08/21 11:22:04;;;;;;;;;;;32.90;72.30;;;33.66;36.68;99141.97;4736345;29;122181;-79
2023/08/21 11:25:27;;;;;;;;;;;33.00;72.00;;;33.79;36.57;99139.88;4741568;29;124202;-80
2023/08/21 11:27:57;;;;;;;;;;;33.20;71.90;;;33.94;36.61;99137.31;4726625;29;119012;-79
2023/08/21 11:33:57;;;;;;;;;;;33.40;71.10;;;34.14;36.29;99131.28;4758316;29;124950;-79
2023/08/21 11:37:00;;;;;;;;;;;33.50;70.70;;;34.22;35.78;99134.69;4745312;29;123773;-80
2023/08/21 11:39:33;;;;;;;;;;;33.60;70.40;;;34.30;35.75;99119.63;4757200;29;119452;-79
2023/08/21 11:42:27;;;;;;;;;;;33.70;70.00;;;34.42;35.61;99132.31;4744376;29;117936;-78
2023/08/21 11:45:26;;;;;;;;;;;33.80;69.60;;;34.51;35.12;99120.09;4773587;29;124491;-79
2023/08/21 11:48:09;;;;;;;;;;;33.90;69.20;;;34.60;34.56;99128.75;4864599;28;124213;-79
2023/08/21 11:51:09;;;;;;;;;;;34.00;68.10;;;34.69;34.59;99128.84;4878716;28;118998;-79
2023/08/21 11:53:51;;;;;;;;;;;34.10;68.20;;;34.84;35.04;99114.69;4889785;28;118264;-79
2023/08/21 11:56:28;;;;;;;;;;;34.30;68.20;;;34.97;34.53;99115.41;4936772;28;123549;-79
2023/08/21 11:59:58;;;;;;;;;;;34.30;67.80;;;35.09;34.16;99112.91;4950202;28;123942;-79
2023/08/21 12:03:24;;;;;;;;;;;34.50;67.30;;;35.20;33.57;99113.31;4980120;28;119175;-79
2023/08/21 12:06:15;;;;;;;;;;;34.60;66.30;;;35.23;33.91;99114.44;4891037;28;97026;-80
2023/08/21 12:08:44;;;;;;;;;;;34.60;66.20;;;35.32;33.71;99108.69;4857403;28;123518;-79
2023/08/21 12:11:11;;;;;;;;;;;34.70;65.90;;;35.42;33.82;99109.53;4883557;28;125743;-79
2023/08/21 12:14:01;;;;;;;;;;;34.80;65.50;;;35.51;33.03;99104.59;4886775;28;120740;-80
2023/08/21 12:16:42;;;;;;;;;;;34.80;65.20;;;35.58;33.21;99109.28;4896283;28;119606;-79
2023/08/21 12:20:10;;;;;;;;;;;34.90;64.40;;;35.62;32.64;99102.06;4953510;28;123926;-79
2023/08/21 12:22:42;;;;;;;;;;;35.00;64.00;;;35.66;32.91;99104.03;4980218;28;123725;-81
2023/08/21 12:25:13;;;;;;;;;;;34.20;63.00;;;35.69;32.55;99098.09;4954780;28;119823;-80
2023/08/21 12:27:39;;;;;;;;;;;35.10;63.40;;;35.75;33.08;99107.69;4989455;28;118203;-80
2023/08/21 12:33:45;;;;;;;;;;;35.20;63.10;;;35.90;32.85;99090.63;4862133;28;125819;-79
2023/08/21 12:37:22;;;;;;;;;;;35.30;63.10;;;35.97;32.74;99093.16;4859482;28;117950;-79
2023/08/21 12:40:17;;;;;;;;;;;35.40;63.40;;;35.98;32.17;99091.09;4785355;29;117968;-80
2023/08/21 12:46:30;;;;;;;;;;;35.40;61.50;;;35.75;32.84;99084.69;4825329;29;123905;-79
2023/08/21 12:49:20;;;;;;;;;;;35.30;61.80;;;35.72;33.03;99082.78;4832275;29;118040;-80
2023/08/21 12:51:52;;;;;;;;;;;35.30;61.70;;;35.70;32.23;99087.41;4838747;28;118487;-79
2023/08/21 12:54:31;;;;;;;;;;;35.30;61.40;;;35.58;32.23;99078.44;4818806;28;124616;-80
2023/08/21 12:57:16;;;;;;;;;;;35.20;61.20;;;35.49;32.53;99074.72;4799277;29;124035;-80
2023/08/21 12:59:43;;;;;;;;;;;35.20;61.20;;;35.44;32.94;99072.47;4770424;29;118784;-80
2023/08/21 13:05:07;;;;;;;;;;;35.10;61.30;;;35.55;33.14;99065.00;4795023;29;124861;-80
2023/08/21 13:07:39;;;;;;;;;;;35.10;61.70;;;35.75;32.63;99066.63;4768594;29;123770;-80
2023/08/21 13:10:27;;;;;;;;;;;35.20;61.90;;;35.95;33.00;99072.72;4850215;28;119505;-79
2023/08/21 13:12:53;;;;;;;;;;;35.30;61.80;;;36.14;32.32;99064.09;4893184;28;118812;-80
2023/08/21 13:15:31;;;;;;;;;;;35.50;60.70;;;36.26;31.56;99061.03;4891668;28;123151;-80
2023/08/21 13:18:06;;;;;;;;;;;35.60;60.30;;;36.44;31.96;99071.72;4956223;28;124256;-80
2023/08/21 13:21:28;;;;;;;;;;;35.70;60.50;;;36.58;30.98;99063.72;4944698;28;119391;-79
2023/08/21 13:24:06;;;;;;;;;;;35.90;59.40;;;36.78;31.32;99061.06;4967941;28;119455;-80
2023/08/21 13:30:16;;;;;;;;;;;36.20;58.10;;;37.04;30.69;99066.44;4989738;28;123379;-79
2023/08/21 13:32:55;;;;;;;;;;;36.30;58.50;;;37.17;30.48;99052.59;4966135;28;118523;-80
2023/08/21 13:38:44;;;;;;;;;;;36.50;57.90;;;36.97;31.07;99052.34;4967246;28;125509;-79
2023/08/21 13:41:25;;;;;;;;;;;36.50;58.50;;;37.01;31.07;99041.44;4967579;28;123193;-79
2023/08/21 13:43:54;;;;;;;;;;;36.50;58.20;;;37.09;30.86;99042.72;4967845;28;119396;-80
2023/08/21 13:46:32;;;;;;;;;;;36.50;57.90;;;37.21;30.81;99043.75;4965127;28;118143;-79
2023/08/21 13:49:16;;;;;;;;;;;36.60;58.20;;;37.34;30.21;99039.34;4951120;28;123507;-79
2023/08/21 13:51:52;;;;;;;;;;;36.70;57.50;;;37.45;30.32;99033.00;4967117;28;123494;-80
2023/08/21 13:54:30;;;;;;;;;;;36.80;57.60;;;37.54;29.87;99035.09;4965680;28;119347;-80
2023/08/21 13:57:13;;;;;;;;;;;36.90;56.50;;;37.61;30.03;99028.13;4950297;28;118571;-80
2023/08/21 13:59:39;;;;;;;;;;;36.90;56.50;;;37.71;29.52;99023.88;4946027;28;124299;-80
2023/08/21 14:02:09;;;;;;;;;;;37.00;56.10;;;37.77;29.67;99019.03;4949876;28;124269;-79
2023/08/21 14:04:58;;;;;;;;;;;37.10;55.80;;;37.86;29.39;99021.84;4962579;28;120340;-80
2023/08/21 14:07:27;;;;;;;;;;;37.20;55.70;;;37.96;29.01;99019.69;4938857;28;119890;-79